Time;durP1;ratioP1;P1;durP2;ratioP2;P2;SDS_P1;SDS_P2;PMS_P1;PMS_P2;Temp;Humidity;BMP_temperature;BMP_pressure;BME280_temperature;BME280_humidity;BME280_pressure;Samples;Min_cycle;Max_cycle;Signal;HPM_P1;HPM_P2
2022/03/30 00:01:58;;;;;;;46.50;19.47;;;;;;;;;;5098219;28;20209;-84
2022/03/30 00:04:25;;;;;;;44.80;20.00;;;;;;;;;;5080413;28;20241;-83
2022/03/30 00:06:54;;;;;;;51.17;20.27;;;;;;;;;;5088462;28;20398;-83
2022/03/30 00:09:21;;;;;;;50.03;20.83;;;;;;;;;;5087245;28;20240;-84
2022/03/30 00:11:53;;;;;;;48.10;20.57;;;;;;;;;;5094727;28;20214;-83
2022/03/30 00:14:20;;;;;;;56.17;21.23;;;;;;;;;;5093374;28;20267;-82
2022/03/30 00:16:48;;;;;;;54.30;21.17;;;;;;;;;;5083019;28;20245;-84
2022/03/30 00:19:15;;;;;;;53.33;21.10;;;;;;;;;;5086266;28;20214;-83
2022/03/30 00:21:42;;;;;;;55.13;21.33;;;;;;;;;;5090642;28;20259;-84
2022/03/30 00:24:11;;;;;;;53.63;20.63;;;;;;;;;;5081879;28;20224;-83
2022/03/30 00:26:38;;;;;;;50.07;21.37;;;;;;;;;;5083889;28;20306;-83
2022/03/30 00:29:06;;;;;;;57.27;21.53;;;;;;;;;;5084756;28;20237;-84
2022/03/30 00:31:33;;;;;;;49.67;21.20;;;;;;;;;;5079264;28;20194;-84
2022/03/30 00:34:01;;;;;;;57.80;21.90;;;;;;;;;;5080388;28;20214;-83
2022/03/30 00:36:28;;;;;;;56.20;20.90;;;;;;;;;;5077543;28;20250;-83
2022/03/30 00:38:55;;;;;;;55.13;22.17;;;;;;;;;;5087073;28;20198;-84
2022/03/30 00:41:24;;;;;;;52.77;22.03;;;;;;;;;;5078816;28;20671;-85
2022/03/30 00:43:51;;;;;;;58.60;21.80;;;;;;;;;;5087259;28;20319;-83
2022/03/30 00:46:18;;;;;;;50.13;21.77;;;;;;;;;;5086103;28;20233;-82
2022/03/30 00:48:45;;;;;;;61.30;24.03;;;;;;;;;;5083131;28;20213;-82
2022/03/30 00:51:12;;;;;;;54.27;22.83;;;;;;;;;;5080295;28;20213;-82
2022/03/30 00:53:41;;;;;;;54.60;22.63;;;;;;;;;;5079769;28;20629;-82
2022/03/30 00:56:08;;;;;;;48.37;20.40;;;;;;;;;;5080060;28;20317;-84
2022/03/30 00:58:37;;;;;;;60.07;23.27;;;;;;;;;;5081391;28;20199;-85
2022/03/30 01:01:04;;;;;;;58.97;22.93;;;;;;;;;;5083900;28;20255;-84
2022/03/30 01:03:31;;;;;;;57.17;22.10;;;;;;;;;;5083313;28;20656;-83
2022/03/30 01:05:59;;;;;;;61.67;23.73;;;;;;;;;;5078382;28;20264;-83
2022/03/30 01:08:26;;;;;;;57.63;22.30;;;;;;;;;;5077353;28;20229;-84
2022/03/30 01:10:54;;;;;;;58.63;22.63;;;;;;;;;;5082136;28;20237;-85
2022/03/30 01:13:21;;;;;;;53.30;21.57;;;;;;;;;;5078509;28;20923;-85
2022/03/30 01:15:50;;;;;;;53.33;22.20;;;;;;;;;;5082899;28;20218;-84
2022/03/30 01:18:17;;;;;;;50.60;21.30;;;;;;;;;;5078497;28;20226;-84
2022/03/30 01:20:49;;;;;;;58.60;23.23;;;;;;;;;;5078419;28;20279;-84
2022/03/30 01:23:16;;;;;;;51.97;22.17;;;;;;;;;;5082597;28;20194;-84
2022/03/30 01:25:43;;;;;;;53.93;21.17;;;;;;;;;;5074147;28;20261;-84
2022/03/30 01:28:11;;;;;;;53.07;21.57;;;;;;;;;;5083769;28;20209;-84
2022/03/30 01:33:23;;;;;;;50.83;21.20;;;;;;;;;;5085213;28;20255;-86
2022/03/30 01:35:51;;;;;;;51.20;22.07;;;;;;;;;;5076352;28;20226;-85
2022/03/30 01:38:19;;;;;;;53.83;21.07;;;;;;;;;;5086804;28;20194;-85
2022/03/30 01:40:46;;;;;;;52.00;21.70;;;;;;;;;;5081856;28;20219;-84
2022/03/30 01:43:13;;;;;;;58.93;22.73;;;;;;;;;;5084164;28;20231;-84
2022/03/30 01:45:40;;;;;;;56.07;22.63;;;;;;;;;;5084273;28;20274;-84
2022/03/30 01:48:08;;;;;;;57.70;22.27;;;;;;;;;;5078487;28;20224;-83
2022/03/30 01:50:36;;;;;;;53.63;22.60;;;;;;;;;;5098382;28;20419;-83
2022/03/30 01:53:05;;;;;;;52.43;21.90;;;;;;;;;;5082623;28;20205;-86
2022/03/30 01:55:32;;;;;;;56.63;22.47;;;;;;;;;;5082649;28;20210;-83
2022/03/30 01:58:00;;;;;;;60.57;23.00;;;;;;;;;;5076719;28;20229;-84
2022/03/30 02:00:28;;;;;;;64.63;24.30;;;;;;;;;;5078793;28;20221;-84
2022/03/30 02:02:55;;;;;;;56.80;23.90;;;;;;;;;;5073802;28;20205;-84
2022/03/30 02:05:22;;;;;;;64.63;23.80;;;;;;;;;;5079068;28;20221;-83
2022/03/30 02:07:49;;;;;;;58.07;23.40;;;;;;;;;;5092180;22;20622;-84
2022/03/30 02:10:21;;;;;;;62.17;22.73;;;;;;;;;;5053708;28;20234;-85
2022/03/30 02:12:48;;;;;;;61.63;23.87;;;;;;;;;;5051064;28;20211;-85
2022/03/30 02:15:16;;;;;;;66.40;24.50;;;;;;;;;;5055129;28;20274;-85
2022/03/30 02:17:43;;;;;;;58.80;23.30;;;;;;;;;;5053619;28;20281;-84
2022/03/30 02:20:16;;;;;;;59.80;24.00;;;;;;;;;;5055490;28;20214;-84
2022/03/30 02:22:43;;;;;;;65.63;25.30;;;;;;;;;;5050547;28;20294;-83
2022/03/30 02:25:11;;;;;;;65.17;24.10;;;;;;;;;;5053683;28;20306;-83
2022/03/30 02:27:40;;;;;;;69.77;24.93;;;;;;;;;;5053404;28;20239;-83
2022/03/30 02:30:09;;;;;;;67.27;24.03;;;;;;;;;;5051912;28;20199;-83
2022/03/30 02:32:37;;;;;;;58.53;24.60;;;;;;;;;;5054922;28;20210;-84
2022/03/30 02:35:04;;;;;;;62.93;24.40;;;;;;;;;;5049590;28;20208;-84
2022/03/30 02:37:31;;;;;;;62.00;24.57;;;;;;;;;;5053031;28;20222;-83
2022/03/30 02:40:01;;;;;;;65.90;24.83;;;;;;;;;;5052868;28;20219;-83
2022/03/30 02:42:29;;;;;;;62.67;22.83;;;;;;;;;;5051736;28;20203;-84
2022/03/30 02:44:59;;;;;;;63.50;24.13;;;;;;;;;;5052028;28;20461;-84
2022/03/30 02:50:09;;;;;;;60.30;23.63;;;;;;;;;;5064204;28;20301;-84
2022/03/30 02:52:37;;;;;;;68.63;25.00;;;;;;;;;;5061868;28;20398;-83
2022/03/30 02:55:06;;;;;;;60.83;24.50;;;;;;;;;;5061855;28;20207;-85
2022/03/30 02:57:33;;;;;;;62.50;24.30;;;;;;;;;;5050192;28;20287;-83
2022/03/30 03:00:04;;;;;;;63.13;23.77;;;;;;;;;;5056295;28;20281;-84
2022/03/30 03:02:34;;;;;;;69.07;25.40;;;;;;;;;;5055919;28;20211;-83
2022/03/30 03:05:01;;;;;;;57.20;23.07;;;;;;;;;;5061017;28;20227;-83
2022/03/30 03:07:30;;;;;;;69.93;25.37;;;;;;;;;;5051969;28;20227;-82
2022/03/30 03:09:59;;;;;;;63.93;25.07;;;;;;;;;;5046421;28;20212;-82
2022/03/30 03:12:26;;;;;;;67.30;24.97;;;;;;;;;;5056560;28;20191;-84
2022/03/30 03:14:54;;;;;;;65.67;25.13;;;;;;;;;;5069368;28;20197;-84
2022/03/30 03:17:22;;;;;;;70.47;25.53;;;;;;;;;;5064760;28;20258;-84
2022/03/30 03:19:49;;;;;;;69.93;25.67;;;;;;;;;;5062094;28;20199;-85
2022/03/30 03:22:17;;;;;;;68.87;25.00;;;;;;;;;;5061440;28;20245;-85
2022/03/30 03:24:46;;;;;;;69.17;25.37;;;;;;;;;;5063919;28;20276;-84
2022/03/30 03:27:14;;;;;;;63.27;24.60;;;;;;;;;;5065354;28;20656;-85
2022/03/30 03:29:41;;;;;;;70.87;25.40;;;;;;;;;;5069939;28;20207;-85
2022/03/30 03:32:11;;;;;;;74.67;26.30;;;;;;;;;;5066356;28;20222;-84
2022/03/30 03:34:39;;;;;;;67.03;25.10;;;;;;;;;;5069539;28;20236;-84
2022/03/30 03:37:08;;;;;;;58.10;24.17;;;;;;;;;;5061676;28;20314;-86
2022/03/30 03:39:38;;;;;;;70.90;25.77;;;;;;;;;;5063190;28;20724;-85
2022/03/30 03:42:05;;;;;;;75.37;26.63;;;;;;;;;;5073369;28;20240;-85
2022/03/30 03:44:33;;;;;;;66.80;26.13;;;;;;;;;;5060684;28;20195;-84
2022/03/30 03:47:00;;;;;;;68.47;26.37;;;;;;;;;;5063480;28;20246;-84
2022/03/30 03:49:27;;;;;;;60.40;25.30;;;;;;;;;;5060445;28;20214;-84
2022/03/30 03:51:56;;;;;;;72.83;25.37;;;;;;;;;;5060077;28;20198;-85
2022/03/30 03:54:23;;;;;;;63.47;25.43;;;;;;;;;;5059213;28;20249;-84
2022/03/30 03:56:50;;;;;;;72.70;25.73;;;;;;;;;;5054864;28;20230;-84
2022/03/30 03:59:18;;;;;;;71.67;26.13;;;;;;;;;;5057706;28;20202;-85
2022/03/30 04:01:47;;;;;;;68.20;25.03;;;;;;;;;;5057636;28;20242;-85
2022/03/30 04:04:16;;;;;;;67.20;25.23;;;;;;;;;;5059828;28;20207;-84
2022/03/30 04:06:43;;;;;;;59.53;24.20;;;;;;;;;;5056214;28;20234;-85
2022/03/30 04:09:12;;;;;;;63.50;24.73;;;;;;;;;;5058169;28;20211;-84
2022/03/30 04:11:39;;;;;;;62.83;24.07;;;;;;;;;;5062381;28;20214;-83
2022/03/30 04:14:07;;;;;;;64.53;24.40;;;;;;;;;;5068815;28;20278;-85
2022/03/30 04:16:37;;;;;;;60.17;24.70;;;;;;;;;;5067753;28;20238;-86
2022/03/30 04:19:06;;;;;;;62.03;24.43;;;;;;;;;;5068736;28;20203;-86
2022/03/30 04:21:34;;;;;;;69.67;25.70;;;;;;;;;;5060706;28;20217;-86
2022/03/30 04:24:05;;;;;;;69.90;24.93;;;;;;;;;;5070844;28;20204;-86
2022/03/30 04:26:34;;;;;;;66.10;25.07;;;;;;;;;;5064549;28;20273;-84
2022/03/30 04:29:01;;;;;;;67.60;25.97;;;;;;;;;;5062986;28;20662;-85
2022/03/30 04:31:28;;;;;;;69.53;25.50;;;;;;;;;;5067361;28;20203;-84
2022/03/30 04:33:55;;;;;;;73.57;26.30;;;;;;;;;;5064694;28;20266;-86
2022/03/30 04:36:23;;;;;;;73.57;27.00;;;;;;;;;;5067005;28;20226;-85
2022/03/30 04:38:53;;;;;;;74.77;26.77;;;;;;;;;;5062786;28;20210;-84
2022/03/30 04:41:20;;;;;;;69.00;26.13;;;;;;;;;;5049476;28;20249;-85
2022/03/30 04:43:49;;;;;;;60.40;24.43;;;;;;;;;;5062367;28;20281;-85
2022/03/30 04:46:17;;;;;;;73.60;26.40;;;;;;;;;;5062950;28;20261;-84
2022/03/30 04:48:44;;;;;;;77.43;26.47;;;;;;;;;;5058710;28;20659;-84
2022/03/30 04:51:12;;;;;;;65.63;25.70;;;;;;;;;;5065400;28;20215;-84
2022/03/30 04:53:39;;;;;;;71.33;26.17;;;;;;;;;;5060093;28;20207;-84
2022/03/30 04:56:07;;;;;;;65.70;25.93;;;;;;;;;;5058513;28;20939;-83
2022/03/30 04:58:35;;;;;;;70.80;25.40;;;;;;;;;;5062863;28;20271;-84
2022/03/30 05:01:03;;;;;;;73.97;26.93;;;;;;;;;;5060789;28;20663;-84
2022/03/30 05:03:30;;;;;;;72.30;27.17;;;;;;;;;;5060816;28;20222;-83
2022/03/30 05:05:59;;;;;;;73.50;25.50;;;;;;;;;;5061012;28;20211;-84
2022/03/30 05:08:26;;;;;;;70.97;25.67;;;;;;;;;;5064734;28;20211;-84
2022/03/30 05:10:54;;;;;;;72.80;25.47;;;;;;;;;;5061237;28;20199;-83
2022/03/30 05:13:21;;;;;;;63.27;24.90;;;;;;;;;;5065751;28;20219;-84
2022/03/30 05:15:48;;;;;;;74.20;26.40;;;;;;;;;;5061744;28;20203;-83
2022/03/30 05:18:17;;;;;;;77.30;27.70;;;;;;;;;;5058392;28;20250;-83
2022/03/30 05:20:45;;;;;;;65.57;26.13;;;;;;;;;;5060651;28;20206;-83
2022/03/30 05:23:13;;;;;;;64.57;25.03;;;;;;;;;;5053961;28;20203;-84
2022/03/30 05:25:42;;;;;;;73.57;25.47;;;;;;;;;;5054050;28;20227;-83
2022/03/30 05:28:09;;;;;;;77.83;27.07;;;;;;;;;;5054756;28;20214;-83
2022/03/30 05:30:37;;;;;;;70.97;26.20;;;;;;;;;;5054944;28;20215;-83
2022/03/30 05:33:04;;;;;;;76.17;27.43;;;;;;;;;;5059332;28;20269;-83
2022/03/30 05:35:32;;;;;;;74.57;26.50;;;;;;;;;;5057744;28;20211;-84
2022/03/30 05:38:00;;;;;;;72.03;27.07;;;;;;;;;;5056624;28;20539;-85
2022/03/30 05:40:27;;;;;;;72.33;27.17;;;;;;;;;;5057863;28;20199;-85
2022/03/30 05:42:54;;;;;;;76.90;26.37;;;;;;;;;;5054076;28;21134;-84
2022/03/30 05:45:22;;;;;;;74.10;26.73;;;;;;;;;;5057935;28;20230;-84
2022/03/30 05:47:49;;;;;;;71.43;26.53;;;;;;;;;;5054505;28;20290;-84
2022/03/30 05:50:18;;;;;;;72.20;27.37;;;;;;;;;;5054378;28;20220;-83
2022/03/30 05:52:49;;;;;;;76.73;27.47;;;;;;;;;;5048397;28;20222;-84
2022/03/30 05:55:17;;;;;;;75.73;27.67;;;;;;;;;;5047548;28;20730;-85
2022/03/30 05:57:47;;;;;;;75.73;26.57;;;;;;;;;;5045415;28;20786;-84
2022/03/30 06:00:14;;;;;;;74.83;26.17;;;;;;;;;;5049848;28;20209;-84
2022/03/30 06:02:42;;;;;;;69.27;26.43;;;;;;;;;;5051105;28;20217;-84
2022/03/30 06:05:09;;;;;;;65.70;26.60;;;;;;;;;;5048476;28;20718;-85
2022/03/30 06:07:36;;;;;;;73.93;28.67;;;;;;;;;;5049103;28;20238;-83
2022/03/30 06:10:05;;;;;;;77.23;27.90;;;;;;;;;;5046647;28;20290;-84
2022/03/30 06:12:33;;;;;;;72.40;27.80;;;;;;;;;;5056097;28;20262;-86
2022/03/30 06:15:00;;;;;;;76.90;27.50;;;;;;;;;;5052091;28;20218;-86
2022/03/30 06:17:28;;;;;;;74.87;27.67;;;;;;;;;;5060449;28;20227;-86
2022/03/30 06:19:58;;;;;;;78.03;28.37;;;;;;;;;;5062626;28;20198;-85
2022/03/30 06:22:29;;;;;;;77.40;27.87;;;;;;;;;;5059673;28;20213;-84
2022/03/30 06:24:57;;;;;;;71.13;27.00;;;;;;;;;;5065856;28;20263;-86
2022/03/30 06:27:26;;;;;;;74.97;27.37;;;;;;;;;;5056730;28;20219;-85
2022/03/30 06:29:53;;;;;;;78.13;27.80;;;;;;;;;;5057775;28;20202;-85
2022/03/30 06:32:20;;;;;;;73.20;27.63;;;;;;;;;;5063848;28;20211;-84
2022/03/30 06:34:48;;;;;;;71.23;27.50;;;;;;;;;;5057072;28;20211;-84
2022/03/30 06:37:16;;;;;;;66.70;26.73;;;;;;;;;;5062709;28;20292;-84
2022/03/30 06:39:45;;;;;;;66.73;26.43;;;;;;;;;;5062769;28;20260;-84
2022/03/30 06:42:12;;;;;;;72.57;28.10;;;;;;;;;;5055661;28;20674;-84
2022/03/30 06:44:41;;;;;;;66.33;26.30;;;;;;;;;;5063020;28;20258;-87
2022/03/30 06:47:08;;;;;;;74.93;26.27;;;;;;;;;;5054586;28;20242;-85
2022/03/30 06:49:35;;;;;;;59.90;24.93;;;;;;;;;;5059001;28;20234;-85
2022/03/30 06:52:03;;;;;;;57.80;24.30;;;;;;;;;;5051603;28;20203;-86
2022/03/30 06:54:30;;;;;;;65.77;25.70;;;;;;;;;;5053304;28;20230;-86
2022/03/30 06:56:59;;;;;;;71.60;25.43;;;;;;;;;;5062449;28;20278;-86
2022/03/30 06:59:26;;;;;;;58.03;24.17;;;;;;;;;;5067863;28;20826;-85
2022/03/30 07:01:56;;;;;;;59.07;24.23;;;;;;;;;;5053699;28;20211;-84
2022/03/30 07:04:23;;;;;;;61.60;23.60;;;;;;;;;;5067390;28;20674;-86
2022/03/30 07:12:21;;;;;;;50.07;21.07;;;;;;;;;;5057360;28;20698;-87
2022/03/30 07:14:49;;;;;;;55.10;21.43;;;;;;;;;;5062312;28;20240;-86
2022/03/30 07:17:19;;;;;;;50.57;21.80;;;;;;;;;;5060644;28;20265;-85
2022/03/30 07:19:46;;;;;;;48.13;20.07;;;;;;;;;;5059640;28;20199;-84
2022/03/30 07:22:14;;;;;;;48.30;20.70;;;;;;;;;;5060252;28;20236;-84
2022/03/30 07:24:44;;;;;;;48.03;20.67;;;;;;;;;;5056050;28;20233;-84
2022/03/30 07:27:11;;;;;;;47.97;21.53;;;;;;;;;;5057046;28;20229;-84
2022/03/30 07:29:39;;;;;;;54.37;20.00;;;;;;;;;;5062219;28;20222;-83
2022/03/30 07:32:06;;;;;;;56.17;20.93;;;;;;;;;;5066251;28;20211;-84
2022/03/30 07:34:36;;;;;;;46.10;20.73;;;;;;;;;;5065107;28;20282;-84
2022/03/30 07:37:04;;;;;;;51.83;21.07;;;;;;;;;;5062638;28;20662;-85
2022/03/30 07:39:32;;;;;;;42.00;18.80;;;;;;;;;;5051595;28;20237;-84
2022/03/30 07:41:59;;;;;;;49.30;20.23;;;;;;;;;;5053883;28;20670;-83
2022/03/30 07:44:26;;;;;;;47.90;20.50;;;;;;;;;;5055361;28;20198;-83
2022/03/30 07:46:54;;;;;;;46.33;20.37;;;;;;;;;;5050198;28;20695;-84
2022/03/30 07:49:22;;;;;;;48.70;20.90;;;;;;;;;;5056743;28;20234;-85
2022/03/30 07:51:50;;;;;;;48.93;20.60;;;;;;;;;;5053024;28;20224;-85
2022/03/30 07:54:18;;;;;;;38.50;18.77;;;;;;;;;;5048112;28;20217;-85
2022/03/30 07:56:45;;;;;;;45.93;17.93;;;;;;;;;;5055425;28;20229;-85
2022/03/30 07:59:13;;;;;;;37.27;16.97;;;;;;;;;;5063315;28;20221;-85
2022/03/30 08:01:40;;;;;;;39.50;18.80;;;;;;;;;;5060906;28;20211;-86
2022/03/30 08:04:08;;;;;;;39.17;17.70;;;;;;;;;;5059897;28;20292;-85
2022/03/30 08:06:35;;;;;;;42.37;18.20;;;;;;;;;;5067779;22;20525;-80
2022/03/30 08:09:04;;;;;;;37.37;17.87;;;;;;;;;;5011982;28;20730;-79
2022/03/30 08:11:31;;;;;;;35.17;16.90;;;;;;;;;;4999786;28;20683;-78
2022/03/30 08:13:58;;;;;;;36.73;16.07;;;;;;;;;;4999988;28;20221;-78
2022/03/30 08:16:25;;;;;;;38.77;18.07;;;;;;;;;;4999060;28;20280;-78
2022/03/30 08:18:52;;;;;;;36.07;15.93;;;;;;;;;;5010449;28;20292;-77
2022/03/30 08:24:06;;;;;;;34.77;14.73;;;;;;;;;;5004052;28;20201;-78
2022/03/30 08:26:33;;;;;;;28.80;14.10;;;;;;;;;;5003936;28;20221;-79
2022/03/30 08:29:01;;;;;;;31.20;13.33;;;;;;;;;;5004892;28;20249;-79
2022/03/30 08:31:28;;;;;;;30.27;12.93;;;;;;;;;;5002093;28;20746;-78
2022/03/30 08:33:55;;;;;;;29.63;13.90;;;;;;;;;;5001397;28;20247;-78
2022/03/30 08:36:22;;;;;;;31.60;13.83;;;;;;;;;;5002915;28;20667;-78
2022/03/30 08:38:49;;;;;;;53.27;15.47;;;;;;;;;;5008312;28;20217;-77
2022/03/30 08:41:18;;;;;;;33.33;13.93;;;;;;;;;;5007114;28;20220;-80
2022/03/30 08:43:45;;;;;;;35.07;14.50;;;;;;;;;;5004635;28;20232;-78
2022/03/30 08:46:14;;;;;;;32.10;14.70;;;;;;;;;;5002276;28;20224;-79
2022/03/30 08:48:42;;;;;;;31.07;13.50;;;;;;;;;;4998936;28;20228;-78
2022/03/30 08:51:10;;;;;;;28.27;13.67;;;;;;;;;;4999639;28;20236;-81
2022/03/30 08:53:37;;;;;;;33.43;13.40;;;;;;;;;;4996380;28;20227;-80
2022/03/30 08:56:05;;;;;;;36.00;14.03;;;;;;;;;;5005768;28;20213;-79
2022/03/30 08:58:33;;;;;;;35.33;14.23;;;;;;;;;;5006331;28;20690;-79
2022/03/30 09:01:07;;;;;;;31.27;15.23;;;;;;;;;;5005007;28;20630;-79
2022/03/30 09:03:35;;;;;;;32.17;14.57;;;;;;;;;;5007268;28;20239;-80
2022/03/30 09:06:03;;;;;;;31.97;13.50;;;;;;;;;;5005588;28;20285;-78
2022/03/30 09:08:30;;;;;;;31.77;13.17;;;;;;;;;;5006749;28;20223;-78
2022/03/30 09:10:59;;;;;;;28.10;13.27;;;;;;;;;;5008648;28;20634;-79
2022/03/30 09:13:26;;;;;;;31.87;13.87;;;;;;;;;;5007966;28;20212;-77
2022/03/30 09:15:55;;;;;;;28.00;13.20;;;;;;;;;;5015669;28;20205;-79
2022/03/30 09:18:22;;;;;;;28.43;13.30;;;;;;;;;;5019551;28;20189;-77
2022/03/30 09:20:51;;;;;;;32.23;13.57;;;;;;;;;;5021463;28;20260;-76
2022/03/30 09:23:19;;;;;;;27.13;12.67;;;;;;;;;;5017638;28;20209;-77
2022/03/30 09:25:46;;;;;;;25.77;12.27;;;;;;;;;;5023375;28;20232;-76
2022/03/30 09:28:16;;;;;;;25.77;13.27;;;;;;;;;;5016490;28;20236;-78
2022/03/30 09:30:44;;;;;;;30.30;11.93;;;;;;;;;;5005886;28;20311;-77
2022/03/30 09:33:13;;;;;;;24.23;11.67;;;;;;;;;;5002768;28;20240;-78
2022/03/30 09:35:42;;;;;;;28.27;12.67;;;;;;;;;;5000253;28;20271;-78
2022/03/30 09:38:10;;;;;;;26.20;12.23;;;;;;;;;;4999202;28;20193;-78
2022/03/30 09:40:38;;;;;;;25.63;12.73;;;;;;;;;;5000685;28;20248;-78
2022/03/30 09:43:12;;;;;;;27.27;11.90;;;;;;;;;;4999319;28;20299;-78
2022/03/30 09:45:40;;;;;;;26.70;12.20;;;;;;;;;;4999867;28;20295;-78
2022/03/30 09:48:20;;;;;;;28.50;12.07;;;;;;;;;;4997252;28;20232;-78
2022/03/30 09:50:48;;;;;;;23.80;10.63;;;;;;;;;;4996027;28;20303;-78
2022/03/30 09:53:17;;;;;;;24.47;10.30;;;;;;;;;;5000647;28;20301;-78
2022/03/30 09:55:55;;;;;;;23.67;10.73;;;;;;;;;;4995079;28;20581;-77
2022/03/30 09:58:23;;;;;;;27.20;11.53;;;;;;;;;;4996353;28;20204;-78
2022/03/30 10:01:09;;;;;;;28.30;11.50;;;;;;;;;;4998361;28;20212;-78
2022/03/30 10:03:43;;;;;;;24.93;11.53;;;;;;;;;;4994739;28;20201;-78
2022/03/30 10:06:10;;;;;;;25.33;10.53;;;;;;;;;;4996175;28;20205;-78
2022/03/30 10:08:38;;;;;;;29.87;11.13;;;;;;;;;;4993153;28;20260;-77
2022/03/30 10:11:05;;;;;;;27.80;11.53;;;;;;;;;;5002718;28;20291;-78
2022/03/30 10:13:32;;;;;;;27.77;10.80;;;;;;;;;;4999539;28;20209;-78
2022/03/30 10:15:59;;;;;;;26.10;11.57;;;;;;;;;;4993932;28;20204;-79
2022/03/30 10:18:27;;;;;;;29.10;13.30;;;;;;;;;;5001530;28;20573;-79
2022/03/30 10:21:20;;;;;;;30.70;12.27;;;;;;;;;;4994146;28;20248;-79
2022/03/30 10:23:53;;;;;;;24.50;11.20;;;;;;;;;;4994785;28;20554;-77
2022/03/30 10:26:29;;;;;;;25.57;11.13;;;;;;;;;;4987440;28;20220;-77
2022/03/30 10:28:59;;;;;;;27.93;12.03;;;;;;;;;;4980553;28;20312;-78
2022/03/30 10:31:28;;;;;;;33.27;13.20;;;;;;;;;;4988805;28;20205;-77
2022/03/30 10:33:55;;;;;;;32.43;12.73;;;;;;;;;;4991166;28;20299;-77
2022/03/30 10:36:26;;;;;;;30.43;12.50;;;;;;;;;;4992095;28;20197;-78
2022/03/30 10:39:07;;;;;;;29.50;13.13;;;;;;;;;;4981354;28;20579;-77
2022/03/30 10:41:50;;;;;;;29.00;12.00;;;;;;;;;;4984279;28;20214;-77
2022/03/30 10:44:36;;;;;;;28.47;11.53;;;;;;;;;;4985644;28;20295;-76
2022/03/30 10:47:07;;;;;;;28.30;12.67;;;;;;;;;;4991354;28;20252;-77
2022/03/30 10:49:42;;;;;;;27.60;12.47;;;;;;;;;;4990249;28;20317;-77
2022/03/30 10:52:28;;;;;;;30.37;12.40;;;;;;;;;;4984263;28;20228;-77
2022/03/30 10:55:10;;;;;;;23.77;12.27;;;;;;;;;;4983803;28;21599;-77
2022/03/30 10:57:50;;;;;;;24.87;11.27;;;;;;;;;;4986691;28;20307;-77
2022/03/30 11:00:18;;;;;;;30.40;13.03;;;;;;;;;;4990000;28;20243;-77
2022/03/30 11:02:45;;;;;;;23.27;11.57;;;;;;;;;;4986406;28;20203;-77
2022/03/30 11:05:13;;;;;;;25.33;12.03;;;;;;;;;;4985766;28;20546;-77
2022/03/30 11:07:41;;;;;;;37.83;13.97;;;;;;;;;;4988620;28;20714;-77
2022/03/30 11:10:15;;;;;;;23.60;12.20;;;;;;;;;;4989292;28;20228;-76
2022/03/30 11:12:57;;;;;;;31.93;12.00;;;;;;;;;;4993455;28;20200;-77
2022/03/30 11:15:26;;;;;;;30.27;12.53;;;;;;;;;;4986440;28;20220;-77
2022/03/30 11:17:55;;;;;;;32.37;12.60;;;;;;;;;;4989136;28;20203;-78
2022/03/30 11:20:24;;;;;;;25.07;11.37;;;;;;;;;;4988963;28;20613;-74
2022/03/30 11:22:51;;;;;;;23.77;11.53;;;;;;;;;;4990671;28;20260;-76
2022/03/30 11:25:19;;;;;;;28.20;12.17;;;;;;;;;;4988561;28;20204;-75
2022/03/30 11:28:08;;;;;;;25.03;12.50;;;;;;;;;;4994469;28;20216;-75
2022/03/30 11:30:43;;;;;;;35.17;12.60;;;;;;;;;;4984806;28;20228;-76
2022/03/30 11:33:21;;;;;;;29.23;12.13;;;;;;;;;;4992221;28;20209;-75
2022/03/30 11:35:49;;;;;;;28.47;12.20;;;;;;;;;;4997801;28;20215;-77
2022/03/30 11:38:22;;;;;;;29.77;12.10;;;;;;;;;;4997061;28;20241;-80
2022/03/30 11:40:50;;;;;;;26.53;12.03;;;;;;;;;;4995959;28;20686;-78
2022/03/30 11:43:19;;;;;;;29.30;11.60;;;;;;;;;;4994101;28;20292;-77
2022/03/30 11:45:49;;;;;;;24.40;10.97;;;;;;;;;;4999407;28;20566;-80
2022/03/30 11:48:16;;;;;;;25.50;11.87;;;;;;;;;;4998076;28;20232;-79
2022/03/30 11:50:44;;;;;;;26.83;11.23;;;;;;;;;;4997341;28;20597;-77
2022/03/30 11:53:12;;;;;;;29.10;12.00;;;;;;;;;;4993936;28;20210;-78
2022/03/30 11:55:49;;;;;;;29.10;12.57;;;;;;;;;;4995555;28;20204;-79
2022/03/30 11:58:23;;;;;;;22.93;10.63;;;;;;;;;;4993334;28;20624;-77
2022/03/30 12:00:53;;;;;;;23.40;10.97;;;;;;;;;;4997462;28;20204;-80
2022/03/30 12:03:20;;;;;;;22.43;11.40;;;;;;;;;;4999549;28;20220;-77
2022/03/30 12:05:51;;;;;;;27.50;11.67;;;;;;;;;;4998890;28;20241;-77
2022/03/30 12:08:19;;;;;;;22.57;11.07;;;;;;;;;;4996273;28;20757;-78
2022/03/30 12:10:48;;;;;;;31.27;12.63;;;;;;;;;;4993630;28;20205;-77
2022/03/30 12:13:21;;;;;;;27.93;12.23;;;;;;;;;;4999949;28;20331;-80
2022/03/30 12:15:48;;;;;;;27.77;12.10;;;;;;;;;;4997914;28;20215;-76
2022/03/30 12:18:17;;;;;;;30.00;12.73;;;;;;;;;;4998508;28;20243;-78
2022/03/30 12:20:44;;;;;;;25.73;11.93;;;;;;;;;;4998169;28;20283;-77
2022/03/30 12:23:12;;;;;;;23.73;11.80;;;;;;;;;;4991576;28;20211;-76
2022/03/30 12:25:40;;;;;;;25.37;11.17;;;;;;;;;;4991598;28;20216;-77
2022/03/30 12:28:07;;;;;;;28.50;12.97;;;;;;;;;;4994357;28;20225;-77
2022/03/30 12:30:36;;;;;;;25.73;11.70;;;;;;;;;;4994221;28;20316;-77
2022/03/30 12:33:03;;;;;;;23.13;10.90;;;;;;;;;;4988764;28;20283;-76
2022/03/30 12:35:33;;;;;;;27.83;11.50;;;;;;;;;;4995310;28;20297;-78
2022/03/30 12:38:07;;;;;;;27.10;11.13;;;;;;;;;;4996333;28;20196;-78
2022/03/30 12:40:36;;;;;;;25.87;11.53;;;;;;;;;;4990271;28;20228;-77
2022/03/30 12:43:03;;;;;;;25.30;11.33;;;;;;;;;;4989568;28;20481;-76
2022/03/30 12:45:30;;;;;;;24.27;10.77;;;;;;;;;;4993062;28;20233;-76
2022/03/30 12:47:59;;;;;;;23.87;11.37;;;;;;;;;;4993858;28;20261;-78
2022/03/30 12:50:31;;;;;;;32.33;11.83;;;;;;;;;;4990856;28;20267;-78
2022/03/30 12:53:06;;;;;;;27.13;11.27;;;;;;;;;;4994104;28;20208;-77
2022/03/30 12:55:36;;;;;;;25.00;10.77;;;;;;;;;;4985610;28;20234;-78
2022/03/30 12:58:07;;;;;;;21.80;10.50;;;;;;;;;;4994510;28;20197;-77
2022/03/30 13:00:36;;;;;;;27.77;12.40;;;;;;;;;;4994182;28;20222;-79
2022/03/30 13:03:09;;;;;;;23.90;11.20;;;;;;;;;;4992782;28;20211;-74
2022/03/30 13:05:36;;;;;;;25.57;11.60;;;;;;;;;;4986546;28;20249;-77
2022/03/30 13:08:11;;;;;;;20.50;11.03;;;;;;;;;;4990142;28;20403;-76
2022/03/30 13:10:48;;;;;;;28.57;12.07;;;;;;;;;;4991832;28;20231;-77
2022/03/30 13:13:17;;;;;;;24.90;11.50;;;;;;;;;;4982228;28;20201;-77
2022/03/30 13:15:44;;;;;;;23.87;11.63;;;;;;;;;;4973989;28;20219;-78
2022/03/30 13:18:15;;;;;;;26.13;11.80;;;;;;;;;;4988761;28;20287;-77
2022/03/30 13:20:43;;;;;;;24.47;11.33;;;;;;;;;;4986579;28;20260;-76
2022/03/30 13:23:12;;;;;;;24.43;11.30;;;;;;;;;;4977579;28;20205;-74
2022/03/30 13:25:41;;;;;;;25.27;11.80;;;;;;;;;;4981793;28;20213;-78
2022/03/30 13:28:09;;;;;;;26.27;11.53;;;;;;;;;;4982835;28;20220;-76
2022/03/30 13:30:37;;;;;;;28.40;11.77;;;;;;;;;;4996257;28;20221;-76
2022/03/30 13:33:04;;;;;;;23.93;11.70;;;;;;;;;;4992627;28;20209;-77
2022/03/30 13:35:31;;;;;;;27.27;11.97;;;;;;;;;;4993412;28;20727;-78
2022/03/30 13:37:58;;;;;;;23.83;11.27;;;;;;;;;;4994141;28;20530;-78
2022/03/30 13:40:27;;;;;;;28.17;11.03;;;;;;;;;;4986063;28;20789;-78
2022/03/30 13:42:54;;;;;;;23.77;11.10;;;;;;;;;;4994911;28;20291;-77
2022/03/30 13:45:21;;;;;;;22.87;10.57;;;;;;;;;;4989779;28;20216;-78
2022/03/30 13:47:49;;;;;;;22.43;10.37;;;;;;;;;;4986527;28;20224;-78
2022/03/30 13:50:16;;;;;;;22.77;10.20;;;;;;;;;;4983206;28;20573;-76
2022/03/30 13:52:43;;;;;;;27.40;10.47;;;;;;;;;;4988386;28;20330;-76
2022/03/30 13:55:10;;;;;;;24.93;10.97;;;;;;;;;;4985091;28;20570;-77
2022/03/30 13:57:39;;;;;;;22.43;10.67;;;;;;;;;;4989840;28;20259;-78
2022/03/30 14:00:12;;;;;;;24.37;10.73;;;;;;;;;;4983090;28;20239;-77
2022/03/30 14:02:39;;;;;;;24.77;11.23;;;;;;;;;;4983411;28;20213;-77
2022/03/30 14:05:07;;;;;;;22.60;10.30;;;;;;;;;;4989019;28;20291;-77
2022/03/30 14:07:34;;;;;;;23.47;10.73;;;;;;;;;;5035306;22;20297;-79
2022/03/30 14:10:01;;;;;;;21.80;10.57;;;;;;;;;;5068057;28;20242;-78
2022/03/30 14:12:28;;;;;;;24.37;10.03;;;;;;;;;;5060705;28;20229;-80
2022/03/30 14:14:57;;;;;;;19.93;10.07;;;;;;;;;;5055312;28;20210;-79
2022/03/30 14:17:24;;;;;;;27.97;10.90;;;;;;;;;;5051422;28;20293;-78
2022/03/30 14:19:52;;;;;;;30.40;10.97;;;;;;;;;;5051829;28;20218;-80
2022/03/30 14:22:20;;;;;;;25.10;10.80;;;;;;;;;;5056983;28;20237;-79
2022/03/30 14:24:47;;;;;;;22.50;10.70;;;;;;;;;;5055765;28;20285;-79
2022/03/30 14:27:15;;;;;;;23.93;11.00;;;;;;;;;;5050710;28;20246;-75
2022/03/30 14:29:43;;;;;;;28.33;10.53;;;;;;;;;;5057031;28;20237;-76
2022/03/30 14:32:11;;;;;;;26.87;11.17;;;;;;;;;;5055242;28;20287;-79
2022/03/30 14:34:38;;;;;;;26.43;11.37;;;;;;;;;;5051721;28;20315;-78
2022/03/30 14:37:06;;;;;;;27.33;12.07;;;;;;;;;;5056124;28;20274;-78
2022/03/30 14:39:33;;;;;;;28.30;11.63;;;;;;;;;;5051937;28;20218;-76